Archival Weather

Chicago O'Hare International

Chicago, Illinois (KORD)

Report from: Thursday, November 24, 2022 7:51 AM CST
Current time: Sunday, December 4, 2022 5:56 AM CST

Current weather
Weather history
Weather forecast

Temperature3.3°C (37.9°F)
Wind chill0.8°C (33.5°F)
Dew point0.0°C (32.0°F)
Winds 5 kts (2.6 m/s, 5.8 mph) South-Southeast (160°)
Visibility10 mi. (16.1 km)
Clouds Few clouds 4,700 ft. (1,433 m)
Ceiling: Broken clouds 11,000 ft. (3,353 m)
Overcast 25,000 ft. (7,620 m)
Altimeter30.14 in.Hg (1021 mB)
Relative humidity79 %
Density altitude-1,579 ft. (-481 m)
Sea-level pressure102.1 kPa (1021 mB, 30.15 in.Hg)
Remarks System requires maintenance
Automated weather observing station with precipitation discriminator
Flight conditions Visual Meteorological Conditions
Raw dataKORD 241351Z 16005KT 10SM FEW047 BKN110 OVC250 03/00 A3014 RMK AO2 SLP210 T00330000 $
An error has occurred. This application may no longer respond until reloaded. Reload 🗙